createdAt,value
2023-05-08T00:02:08.326Z,34.08
2023-05-08T00:05:09.948Z,31.33
2023-05-08T00:08:11.568Z,30.38
2023-05-08T00:11:13.243Z,29.38
2023-05-08T00:14:15.692Z,30.60
2023-05-08T00:17:17.498Z,31.13
2023-05-08T00:20:23.228Z,30.70
2023-05-08T00:23:24.782Z,33.55
2023-05-08T00:26:26.448Z,32.10
2023-05-08T00:29:30.816Z,35.05
2023-05-08T00:32:32.378Z,33.05
2023-05-08T00:35:33.942Z,31.77
2023-05-08T00:38:36.736Z,31.63
2023-05-08T00:41:38.424Z,31.52
2023-05-08T00:44:41.137Z,34.92
2023-05-08T00:47:42.938Z,32.80
2023-05-08T00:50:44.819Z,39.10
2023-05-08T00:53:46.675Z,31.67
2023-05-08T00:56:50.630Z,34.30
2023-05-08T00:59:53.955Z,32.50
2023-05-08T01:02:55.744Z,34.75
2023-05-08T01:05:57.496Z,31.95
2023-05-08T01:08:59.079Z,37.03
2023-05-08T01:12:07.788Z,36.85
2023-05-08T01:15:24.361Z,37.97
2023-05-08T01:18:38.790Z,40.67
2023-05-08T01:21:50.324Z,35.03
2023-05-08T01:25:02.936Z,34.67
2023-05-08T01:28:26.150Z,36.25
2023-05-08T01:31:39.346Z,31.35
2023-05-08T01:34:54.261Z,37.53
2023-05-08T01:38:01.896Z,31.40
2023-05-08T01:41:14.461Z,32.80
2023-05-08T01:44:20.209Z,40.38
2023-05-08T01:47:26.041Z,38.08
2023-05-08T01:50:36.546Z,44.33
2023-05-08T01:53:42.635Z,40.00
2023-05-08T01:56:47.634Z,34.80
2023-05-08T01:59:52.018Z,33.67
2023-05-08T02:02:55.508Z,31.65
2023-05-08T02:05:59.238Z,35.63
2023-05-08T02:09:02.291Z,37.38
2023-05-08T02:12:06.568Z,37.10
2023-05-08T02:15:13.254Z,37.13
2023-05-08T02:18:18.642Z,41.13
2023-05-08T02:21:22.228Z,34.50
2023-05-08T02:24:24.595Z,34.72
2023-05-08T02:27:28.840Z,43.53
2023-05-08T02:30:31.275Z,36.33
2023-05-08T02:33:33.421Z,37.60
2023-05-08T02:36:37.241Z,31.52
2023-05-08T02:39:41.547Z,46.42
2023-05-08T02:42:44.307Z,42.97
2023-05-08T02:45:59.088Z,36.38
2023-05-08T02:49:07.090Z,52.70
2023-05-08T02:52:27.312Z,41.05
2023-05-08T02:55:49.353Z,33.97
2023-05-08T02:59:00.182Z,37.53
2023-05-08T03:02:16.932Z,43.40
2023-05-08T03:05:33.718Z,42.80
2023-05-08T03:08:36.936Z,42.97
2023-05-08T03:11:42.141Z,41.25
2023-05-08T03:14:55.045Z,40.90
2023-05-08T03:18:02.965Z,44.13
2023-05-08T03:21:07.218Z,42.00
2023-05-08T03:24:10.202Z,44.75
2023-05-08T03:27:13.223Z,49.17
2023-05-08T03:30:16.697Z,36.78
2023-05-08T03:33:19.294Z,47.65
2023-05-08T03:36:22.353Z,45.28
2023-05-08T03:39:26.248Z,44.50
2023-05-08T03:42:28.227Z,39.30
2023-05-08T03:45:34.425Z,42.58
2023-05-08T03:48:36.352Z,48.08
2023-05-08T03:51:41.086Z,50.17
2023-05-08T03:54:43.034Z,39.83
2023-05-08T03:57:57.084Z,35.63
2023-05-08T04:01:09.718Z,38.35
2023-05-08T04:04:18.026Z,35.15
2023-05-08T04:07:28.858Z,44.80
2023-05-08T04:10:39.938Z,38.03
2023-05-08T04:13:51.770Z,50.28
2023-05-08T04:17:00.435Z,45.38
2023-05-08T04:20:04.691Z,41.38
2023-05-08T04:23:08.801Z,42.15
2023-05-08T04:26:13.830Z,46.17
2023-05-08T04:29:17.087Z,44.88
2023-05-08T04:32:19.259Z,47.33
2023-05-08T04:35:21.058Z,43.83
2023-05-08T04:38:22.637Z,42.25
2023-05-08T04:41:24.295Z,46.30
2023-05-08T04:44:26.498Z,35.67
2023-05-08T04:47:28.227Z,38.42
2023-05-08T04:50:29.876Z,38.85
2023-05-08T04:53:34.331Z,38.63
2023-05-08T04:56:36.060Z,37.22
2023-05-08T04:59:37.742Z,40.47
2023-05-08T05:02:39.377Z,45.17
2023-05-08T05:05:41.035Z,44.22
2023-05-08T05:08:42.629Z,40.20
2023-05-08T05:11:44.490Z,46.33
2023-05-08T05:14:46.078Z,36.60
2023-05-08T05:17:47.634Z,38.30
2023-05-08T05:20:49.327Z,35.53
2023-05-08T05:23:51.015Z,42.70
2023-05-08T05:26:52.932Z,40.83
2023-05-08T05:29:54.510Z,40.28
2023-05-08T05:32:56.093Z,35.47
2023-05-08T05:35:57.714Z,31.08
2023-05-08T05:38:59.414Z,27.33
2023-05-08T05:42:01.018Z,23.15
2023-05-08T05:45:02.702Z,19.83
2023-05-08T05:48:04.839Z,18.25
2023-05-08T05:51:06.493Z,19.33
2023-05-08T05:54:08.054Z,16.23
2023-05-08T05:57:09.773Z,18.95
2023-05-08T06:00:12.156Z,24.73
2023-05-08T06:03:14.141Z,17.10
2023-05-08T06:06:15.853Z,17.65
2023-05-08T06:09:17.417Z,16.05
2023-05-08T06:12:19.425Z,23.70
2023-05-08T06:15:21.971Z,14.85
2023-05-08T06:18:23.564Z,17.35
2023-05-08T06:21:25.200Z,25.08
2023-05-08T06:24:27.689Z,13.73
2023-05-08T06:27:29.241Z,14.85
2023-05-08T06:30:30.865Z,14.10
2023-05-08T06:33:32.466Z,16.08
2023-05-08T06:36:34.019Z,16.30
2023-05-08T06:39:35.741Z,14.13
2023-05-08T06:42:37.377Z,12.32
2023-05-08T06:45:39.705Z,15.00
2023-05-08T06:48:41.273Z,13.82
2023-05-08T06:51:42.874Z,18.02
2023-05-08T06:54:44.459Z,14.13
2023-05-08T06:57:46.049Z,15.15
2023-05-08T07:00:47.627Z,13.57
2023-05-08T07:03:49.204Z,12.25
2023-05-08T07:06:51.150Z,10.20
2023-05-08T07:09:52.742Z,10.90
2023-05-08T07:12:54.396Z,15.05
2023-05-08T07:15:56.036Z,13.18
2023-05-08T07:18:57.650Z,11.95
2023-05-08T07:22:00.269Z,11.13
2023-05-08T07:25:02.076Z,11.45
2023-05-08T07:28:03.847Z,10.65
2023-05-08T07:31:07.198Z,40.50
2023-05-08T07:34:08.784Z,11.05
2023-05-08T07:37:10.681Z,12.65
2023-05-08T07:40:12.391Z,12.48
2023-05-08T07:43:14.963Z,15.73
2023-05-08T07:46:17.849Z,11.02
2023-05-08T07:49:19.470Z,11.35
2023-05-08T07:52:21.680Z,12.98
2023-05-08T07:55:23.261Z,10.52
2023-05-08T07:58:24.924Z,11.35
2023-05-08T08:01:27.319Z,12.43
2023-05-08T08:04:28.926Z,12.95
2023-05-08T08:07:32.626Z,12.32
2023-05-08T08:10:34.205Z,11.20
2023-05-08T08:13:35.763Z,11.10
2023-05-08T08:16:37.340Z,12.23
2023-05-08T08:19:38.901Z,11.25
2023-05-08T08:22:40.460Z,15.30
2023-05-08T08:25:42.363Z,11.75
2023-05-08T08:28:43.988Z,14.35
2023-05-08T08:31:45.767Z,14.00
2023-05-08T08:34:47.325Z,9.80
2023-05-08T08:37:48.882Z,13.55
2023-05-08T08:40:50.555Z,11.30
2023-05-08T08:43:52.148Z,8.88
2023-05-08T08:46:54.904Z,10.75
2023-05-08T08:50:00.460Z,10.23
2023-05-08T08:53:15.647Z,19.08
2023-05-08T08:56:17.777Z,9.15
2023-05-08T08:59:19.636Z,7.30
2023-05-08T09:02:23.339Z,7.90
2023-05-08T09:05:26.408Z,9.98
2023-05-08T09:08:28.393Z,11.13
2023-05-08T09:11:30.372Z,6.13
2023-05-08T09:14:32.165Z,5.03
2023-05-08T09:17:33.730Z,6.13
2023-05-08T09:20:35.770Z,4.85
2023-05-08T09:23:37.459Z,4.47
2023-05-08T09:26:40.998Z,4.97
2023-05-08T09:29:59.180Z,6.40
2023-05-08T09:33:02.495Z,10.23
2023-05-08T09:36:04.503Z,4.75
2023-05-08T09:39:11.515Z,6.00
2023-05-08T09:42:13.763Z,10.45
2023-05-08T09:45:28.637Z,6.05
2023-05-08T09:48:39.375Z,7.03
2023-05-08T09:51:53.686Z,8.60
2023-05-08T09:54:59.511Z,6.40
2023-05-08T09:58:01.117Z,5.75
2023-05-08T10:01:02.822Z,6.15
2023-05-08T10:04:05.865Z,9.98
2023-05-08T10:07:07.831Z,9.60
2023-05-08T10:10:09.678Z,3.78
2023-05-08T10:13:11.658Z,6.32
2023-05-08T10:16:18.408Z,4.40
2023-05-08T10:19:24.778Z,8.27
2023-05-08T10:22:28.190Z,6.78
2023-05-08T10:25:40.025Z,5.93
2023-05-08T10:28:55.076Z,7.50
2023-05-08T10:31:58.703Z,8.98
2023-05-08T10:35:00.710Z,8.45
2023-05-08T10:38:03.638Z,7.55
2023-05-08T10:41:06.292Z,7.82
2023-05-08T10:44:09.468Z,5.60
2023-05-08T10:47:16.727Z,7.45
2023-05-08T10:50:51.037Z,7.20
2023-05-08T10:53:57.066Z,5.97
2023-05-08T10:57:09.427Z,10.60
2023-05-08T11:00:11.748Z,5.32
2023-05-08T11:03:27.331Z,8.38
2023-05-08T11:06:45.605Z,7.38
2023-05-08T11:09:48.349Z,6.82
2023-05-08T11:12:51.183Z,6.68
2023-05-08T11:15:52.853Z,8.25
2023-05-08T11:19:17.041Z,6.38
2023-05-08T11:22:24.360Z,6.90
2023-05-08T11:25:43.308Z,6.28
2023-05-08T11:28:54.424Z,9.73
2023-05-08T11:31:56.276Z,7.13
2023-05-08T11:34:57.871Z,7.07
2023-05-08T11:38:19.180Z,8.30
2023-05-08T11:41:22.143Z,10.75
2023-05-08T11:44:24.757Z,7.97
2023-05-08T11:47:41.308Z,10.77
2023-05-08T11:50:44.000Z,9.10
2023-05-08T11:53:46.867Z,8.88
2023-05-08T11:56:50.568Z,6.93
2023-05-08T11:59:52.186Z,8.60
2023-05-08T12:02:53.761Z,6.10
2023-05-08T12:05:57.938Z,9.02
2023-05-08T12:09:00.726Z,7.78
2023-05-08T12:12:02.342Z,10.75
2023-05-08T12:15:09.340Z,10.48
2023-05-08T12:18:11.004Z,10.77
2023-05-08T12:21:12.704Z,7.45
2023-05-08T12:24:16.284Z,6.35
2023-05-08T12:27:17.868Z,6.60
2023-05-08T12:30:19.667Z,6.43
2023-05-08T12:33:22.233Z,7.32
2023-05-08T12:36:23.825Z,8.60
2023-05-08T12:39:25.939Z,5.43
2023-05-08T12:42:48.479Z,7.72
2023-05-08T12:45:53.979Z,5.55
2023-05-08T12:49:04.525Z,7.68
2023-05-08T12:52:08.483Z,8.40
2023-05-08T12:55:30.527Z,6.68
2023-05-08T12:58:34.476Z,7.28
2023-05-08T13:01:36.271Z,6.38
2023-05-08T13:04:38.693Z,5.78
2023-05-08T13:07:40.838Z,6.57
2023-05-08T13:10:48.458Z,11.05
2023-05-08T13:13:49.988Z,5.82
2023-05-08T13:16:51.862Z,7.93
2023-05-08T13:19:54.038Z,9.05
2023-05-08T13:22:55.595Z,6.07
2023-05-08T13:25:57.280Z,6.95
2023-05-08T13:28:58.963Z,4.97
2023-05-08T13:32:00.608Z,4.80
2023-05-08T13:35:02.311Z,5.40
2023-05-08T13:38:04.017Z,6.25
2023-05-08T13:41:05.577Z,7.55
2023-05-08T13:44:07.093Z,6.28
2023-05-08T13:47:10.043Z,4.75
2023-05-08T13:50:13.493Z,8.63
2023-05-08T13:53:15.317Z,6.07
2023-05-08T13:56:16.879Z,6.30
2023-05-08T13:59:18.509Z,7.80
2023-05-08T14:02:20.388Z,6.47
2023-05-08T14:05:22.163Z,5.43
2023-05-08T14:08:23.721Z,4.25
2023-05-08T14:11:25.375Z,4.80
2023-05-08T14:14:26.945Z,4.78
2023-05-08T14:17:28.565Z,6.30
2023-05-08T14:20:30.599Z,5.22
2023-05-08T14:23:32.608Z,4.50
2023-05-08T14:26:37.030Z,5.55
2023-05-08T14:29:39.166Z,7.65
2023-05-08T14:32:41.723Z,5.10
2023-05-08T14:35:43.828Z,4.53
2023-05-08T14:38:45.486Z,6.68
2023-05-08T14:42:05.222Z,10.90
2023-05-08T14:45:09.327Z,5.60
2023-05-08T14:48:11.209Z,6.90
2023-05-08T14:51:13.933Z,3.80
2023-05-08T14:54:15.827Z,4.13
2023-05-08T14:57:17.475Z,4.20
2023-05-08T15:00:20.610Z,6.90
2023-05-08T15:03:22.281Z,7.95
2023-05-08T15:06:25.365Z,8.20
2023-05-08T15:09:26.992Z,6.97
2023-05-08T15:12:28.785Z,5.22
2023-05-08T15:15:30.531Z,6.57
2023-05-08T15:18:32.085Z,4.13
2023-05-08T15:21:33.627Z,5.90
2023-05-08T15:24:35.175Z,6.93
2023-05-08T15:27:36.777Z,4.82
2023-05-08T15:30:38.335Z,6.03
2023-05-08T15:33:44.868Z,6.93
2023-05-08T15:36:46.921Z,4.72
2023-05-08T15:39:50.108Z,6.13
2023-05-08T15:42:51.650Z,5.40
2023-05-08T15:45:53.306Z,4.97
2023-05-08T15:48:54.873Z,7.18
2023-05-08T15:51:56.481Z,4.80
2023-05-08T15:54:58.019Z,7.47
2023-05-08T15:57:59.658Z,5.07
2023-05-08T16:01:01.304Z,4.90
2023-05-08T16:04:02.982Z,4.43
2023-05-08T16:07:04.664Z,5.00
2023-05-08T16:10:07.513Z,5.30
2023-05-08T16:13:09.680Z,9.77
2023-05-08T16:16:11.664Z,5.32
2023-05-08T16:19:14.758Z,6.68
2023-05-08T16:22:16.383Z,8.57
2023-05-08T16:25:18.539Z,5.30
2023-05-08T16:28:20.757Z,8.02
2023-05-08T16:31:22.443Z,5.68
2023-05-08T16:34:24.782Z,7.05
2023-05-08T16:37:26.404Z,6.93
2023-05-08T16:40:28.079Z,7.00
2023-05-08T16:43:29.729Z,5.88
2023-05-08T16:46:31.347Z,6.88
2023-05-08T16:49:32.963Z,7.72
2023-05-08T16:52:34.765Z,9.95
2023-05-08T16:55:36.487Z,8.30
2023-05-08T16:58:38.143Z,8.93
2023-05-08T17:01:39.743Z,6.72
2023-05-08T17:04:41.445Z,7.00
2023-05-08T17:07:43.123Z,8.40
2023-05-08T17:10:44.735Z,9.73
2023-05-08T17:13:47.332Z,8.05
2023-05-08T17:16:49.079Z,11.60
2023-05-08T17:19:50.714Z,7.95
2023-05-08T17:22:55.197Z,10.35
2023-05-08T17:25:57.925Z,9.88
2023-05-08T17:28:59.659Z,11.90
2023-05-08T17:32:01.569Z,8.73
2023-05-08T17:35:03.381Z,10.13
2023-05-08T17:38:04.977Z,13.98
2023-05-08T17:41:06.529Z,14.13
2023-05-08T17:44:08.120Z,10.98
2023-05-08T17:47:09.872Z,12.30
2023-05-08T17:50:11.682Z,15.90
2023-05-08T17:53:13.544Z,17.65
2023-05-08T17:56:20.163Z,14.02
2023-05-08T17:59:21.979Z,14.95
2023-05-08T18:02:23.661Z,14.48
2023-05-08T18:05:25.316Z,10.68
2023-05-08T18:08:26.899Z,19.88
2023-05-08T18:11:28.604Z,11.27
2023-05-08T18:14:31.754Z,12.57
2023-05-08T18:17:33.409Z,13.00
2023-05-08T18:20:35.171Z,11.18
2023-05-08T18:23:37.228Z,14.38
2023-05-08T18:26:38.773Z,14.05
2023-05-08T18:29:40.316Z,11.23
2023-05-08T18:32:41.938Z,11.38
2023-05-08T18:35:43.604Z,15.07
2023-05-08T18:38:45.197Z,16.70
2023-05-08T18:41:46.984Z,16.58
2023-05-08T18:44:48.817Z,13.50
2023-05-08T18:47:52.270Z,14.75
2023-05-08T18:50:55.803Z,14.82
2023-05-08T18:53:57.399Z,19.45
2023-05-08T18:56:58.997Z,13.20
2023-05-08T19:00:00.529Z,13.38
2023-05-08T19:03:02.347Z,11.10
2023-05-08T19:06:04.385Z,12.27
2023-05-08T19:09:06.013Z,10.68
2023-05-08T19:12:07.615Z,12.10
2023-05-08T19:15:13.221Z,12.38
2023-05-08T19:18:15.293Z,9.02
2023-05-08T19:21:16.965Z,9.00
2023-05-08T19:24:20.662Z,13.50
2023-05-08T19:27:22.374Z,9.45
2023-05-08T19:30:24.089Z,7.75
2023-05-08T19:33:25.663Z,9.15
2023-05-08T19:36:27.234Z,10.98
2023-05-08T19:39:28.831Z,10.25
2023-05-08T19:42:30.902Z,7.93
2023-05-08T19:45:32.469Z,6.75
2023-05-08T19:48:34.021Z,10.70
2023-05-08T19:51:35.650Z,8.98
2023-05-08T19:54:37.300Z,8.48
2023-05-08T19:57:38.869Z,7.18
2023-05-08T20:00:40.616Z,9.75
2023-05-08T20:03:42.187Z,9.00
2023-05-08T20:06:43.858Z,8.45
2023-05-08T20:09:45.653Z,7.53
2023-05-08T20:12:47.241Z,7.70
2023-05-08T20:15:48.818Z,10.45
2023-05-08T20:18:50.464Z,7.38
2023-05-08T20:21:51.988Z,9.05
2023-05-08T20:24:53.597Z,11.05
2023-05-08T20:27:55.236Z,8.52
2023-05-08T20:30:57.092Z,7.75
2023-05-08T20:34:01.587Z,11.25
2023-05-08T20:37:03.884Z,9.30
2023-05-08T20:40:06.052Z,9.63
2023-05-08T20:43:07.710Z,10.60
2023-05-08T20:46:10.123Z,13.43
2023-05-08T20:49:16.953Z,11.32
2023-05-08T20:52:18.536Z,8.52
2023-05-08T20:55:20.422Z,11.18
2023-05-08T20:58:22.001Z,10.23
2023-05-08T21:01:23.655Z,10.05
2023-05-08T21:04:28.577Z,10.15
2023-05-08T21:07:30.131Z,9.27
2023-05-08T21:10:31.725Z,8.38
2023-05-08T21:13:33.302Z,8.73
2023-05-08T21:16:37.137Z,12.20
2023-05-08T21:19:38.762Z,12.10
2023-05-08T21:22:40.386Z,13.57
2023-05-08T21:25:41.967Z,10.80
2023-05-08T21:28:43.496Z,11.27
2023-05-08T21:31:45.235Z,10.32
2023-05-08T21:34:46.867Z,10.13
2023-05-08T21:37:53.263Z,13.93
2023-05-08T21:40:56.063Z,10.10
2023-05-08T21:43:57.638Z,12.57
2023-05-08T21:46:59.222Z,11.70
2023-05-08T21:50:00.847Z,11.65
2023-05-08T21:53:03.063Z,11.25
2023-05-08T21:56:05.197Z,12.95
2023-05-08T21:59:07.354Z,13.90
2023-05-08T22:02:08.984Z,15.57
2023-05-08T22:05:10.786Z,14.75
2023-05-08T22:08:12.721Z,12.70
2023-05-08T22:11:14.860Z,17.05
2023-05-08T22:14:16.502Z,13.45
2023-05-08T22:17:18.100Z,12.98
2023-05-08T22:20:19.711Z,22.88
2023-05-08T22:23:21.326Z,15.80
2023-05-08T22:26:23.446Z,10.88
2023-05-08T22:29:25.103Z,13.73
2023-05-08T22:32:27.661Z,17.48
2023-05-08T22:35:29.334Z,14.63
2023-05-08T22:38:30.869Z,15.25
2023-05-08T22:41:33.770Z,18.98
2023-05-08T22:44:36.510Z,17.95
2023-05-08T22:47:39.019Z,14.20
2023-05-08T22:50:40.891Z,14.25
2023-05-08T22:53:42.445Z,14.68
2023-05-08T22:56:44.067Z,17.80
2023-05-08T22:59:45.817Z,23.10
2023-05-08T23:02:47.427Z,13.77
2023-05-08T23:05:49.206Z,16.92
2023-05-08T23:08:50.757Z,12.10
2023-05-08T23:11:52.340Z,13.98
2023-05-08T23:14:53.875Z,14.00
2023-05-08T23:17:55.575Z,12.95
2023-05-08T23:20:57.129Z,17.13
2023-05-08T23:23:58.896Z,11.90
2023-05-08T23:27:00.530Z,22.70
2023-05-08T23:30:02.110Z,17.13
2023-05-08T23:33:03.831Z,17.70
2023-05-08T23:36:06.000Z,13.75
2023-05-08T23:39:07.688Z,17.83
2023-05-08T23:42:09.386Z,15.80
2023-05-08T23:45:11.855Z,18.67
2023-05-08T23:48:13.706Z,19.75
2023-05-08T23:51:15.256Z,16.40
2023-05-08T23:54:18.058Z,13.95
2023-05-08T23:57:19.665Z,17.38
